Izumo Princess — SXMB — position and weather

sailwx.info

Track history (hours):
 
Tides and Currents Weather Stations Pressure Air Temp Water Temp Dewpoint Dewpoint Depression Visibility Wind Speed Wind Dir Waves Ship Positions

Izumo Princess

Last reported at 2014-Sep-17 14:33 UTC. Time now 2014-Sep-18 01:45 UTC.
Position N 35°30' E 025°41'.

Length 229 m; draft 8.2 m.

Type: Ship (hazmat cat B). MMSI: 240611000.

Date/timePositionNaut miles runAvg speedWind from/ knotsBaromVisibWave heightAir tempDewpointWater temp
2014-Sep-17 14:33N 35°30' E 025°41'1010.1
2014-Sep-17 13:34N 35°32' E 025°29'1010.4
2014-Sep-17 12:34N 35°33' E 025°16'45110.2
2014-Sep-15 16:17N 35°53' E 016°01'1010.3
2014-Sep-15 15:19N 35°53' E 015°49'1010.1
2014-Sep-15 14:18N 35°54' E 015°36'710.0
2014-Sep-15 13:33N 35°54' E 015°27'1010.5
2014-Sep-15 12:34N 35°54' E 015°14'1111.0
2014-Sep-15 11:34N 35°54' E 015°01'1110.9
2014-Sep-15 10:34N 35°54' E 014°47'0 0.2
2014-Sep-15 09:33N 35°54' E 014°48'0 0.0
2014-Sep-15 06:30N 35°54' E 014°47'0 0.0
2014-Sep-15 04:27N 35°54' E 014°47'0 0.0
2014-Sep-15 03:27N 35°54' E 014°47'0 0.2
2014-Sep-15 02:33N 35°54' E 014°47'5 5.0
2014-Sep-15 01:33N 35°59' E 014°49'  
Track history (hours):
 
Tides and Currents Weather Stations Pressure Air Temp Water Temp Dewpoint Dewpoint Depression Visibility Wind Speed Wind Dir Waves Ship Positions

Izumo Princess

Last reported at 2014-Sep-17 14:33 UTC. Time now 2014-Sep-18 01:45 UTC.
Position N 35°30' E 025°41'.

Length 229 m; draft 8.2 m.

Type: Ship (hazmat cat B). MMSI: 240611000.

Date/timePositionNaut miles runAvg speedWind from/ knotsBaromVisibWave heightAir tempDewpointWater temp
2014-Sep-17 14:33N 35°30' E 025°41'1010.1
2014-Sep-17 13:34N 35°32' E 025°29'1010.4
2014-Sep-17 12:34N 35°33' E 025°16'45110.2
2014-Sep-15 16:17N 35°53' E 016°01'1010.3
2014-Sep-15 15:19N 35°53' E 015°49'1010.1
2014-Sep-15 14:18N 35°54' E 015°36'710.0
2014-Sep-15 13:33N 35°54' E 015°27'1010.5
2014-Sep-15 12:34N 35°54' E 015°14'1111.0
2014-Sep-15 11:34N 35°54' E 015°01'1110.9
2014-Sep-15 10:34N 35°54' E 014°47'0 0.2
2014-Sep-15 09:33N 35°54' E 014°48'0 0.0
2014-Sep-15 06:30N 35°54' E 014°47'0 0.0
2014-Sep-15 04:27N 35°54' E 014°47'0 0.0
2014-Sep-15 03:27N 35°54' E 014°47'0 0.2
2014-Sep-15 02:33N 35°54' E 014°47'5 5.0
2014-Sep-15 01:33N 35°59' E 014°49'  

Dump ship's entire track history